Time;durP1;ratioP1;P1;durP2;ratioP2;P2;SDS_P1;SDS_P2;PMS_P1;PMS_P2;Temp;Humidity;BMP_temperature;BMP_pressure;BME280_temperature;BME280_humidity;BME280_pressure;Samples;Min_cycle;Max_cycle;Signal;HPM_P1;HPM_P2
2022/09/03 00:00:07;;;;;;;5.82;5.32;;;;;;;16.70;100.00;63724.34;5103636;28;20270;-76
2022/09/03 00:02:42;;;;;;;4.85;4.45;;;;;;;16.62;100.00;63718.56;5101628;28;20281;-77
2022/09/03 00:05:17;;;;;;;6.68;4.55;;;;;;;16.60;100.00;63713.41;5083204;28;20218;-77
2022/09/03 00:07:55;;;;;;;6.80;4.65;;;;;;;16.68;100.00;63726.88;5088494;28;20295;-77
2022/09/03 00:10:29;;;;;;;4.75;4.35;;;;;;;16.55;100.00;63713.84;5084128;28;20406;-77
2022/09/03 00:13:01;;;;;;;5.05;4.55;;;;;;;16.54;100.00;63715.41;5087006;28;20255;-76
2022/09/03 00:15:31;;;;;;;5.32;4.10;;;;;;;16.53;100.00;63709.19;5101171;28;20197;-76
2022/09/03 00:18:05;;;;;;;5.10;4.32;;;;;;;16.49;100.00;63702.47;5083057;28;20241;-77
2022/09/03 00:20:37;;;;;;;5.43;4.53;;;;;;;16.47;100.00;63697.81;5083215;28;20212;-76
2022/09/03 00:23:08;;;;;;;4.85;4.45;;;;;;;16.54;100.00;63710.25;5083484;28;20194;-78
2022/09/03 00:25:40;;;;;;;7.95;5.03;;;;;;;16.47;100.00;63702.97;5084593;28;20196;-76
2022/09/03 00:28:13;;;;;;;5.15;4.75;;;;;;;16.49;100.00;63699.38;5103355;28;20192;-76
2022/09/03 00:30:42;;;;;;;4.78;4.35;;;;;;;16.48;100.00;63700.94;5104384;28;20195;-76
2022/09/03 00:33:13;;;;;;;4.95;4.55;;;;;;;16.44;100.00;63699.84;5103738;28;20220;-77
2022/09/03 00:35:47;;;;;;;5.28;4.78;;;;;;;16.50;100.00;63703.00;5101689;28;20200;-76
2022/09/03 00:38:16;;;;;;;5.53;5.03;;;;;;;16.56;100.00;63706.66;5103586;28;20416;-76
2022/09/03 00:40:56;;;;;;;4.78;4.13;;;;;;;16.51;100.00;63706.59;5104886;28;20188;-76
2022/09/03 00:43:38;;;;;;;5.13;4.72;;;;;;;16.54;100.00;63704.59;5103806;28;20366;-76
2022/09/03 00:46:17;;;;;;;5.72;4.85;;;;;;;16.55;100.00;63708.22;5102039;28;20434;-76
2022/09/03 00:48:56;;;;;;;7.05;4.75;;;;;;;16.47;100.00;63700.41;5103550;28;20260;-76
2022/09/03 00:51:32;;;;;;;5.05;4.55;;;;;;;16.50;100.00;63700.94;5103428;28;20268;-76
2022/09/03 00:54:07;;;;;;;6.90;4.72;;;;;;;16.48;100.00;63703.50;5105719;28;20188;-76
2022/09/03 00:56:44;;;;;;;5.03;4.57;;;;;;;16.44;100.00;63701.88;5105823;28;20366;-76
2022/09/03 00:59:25;;;;;;;4.57;4.28;;;;;;;16.51;100.00;63709.72;5106713;28;20187;-76
2022/09/03 01:02:04;;;;;;;7.13;5.20;;;;;;;16.49;100.00;63701.97;5107175;28;20218;-75
2022/09/03 01:04:42;;;;;;;7.47;5.53;;;;;;;16.47;100.00;63702.97;5106222;28;20500;-76
2022/09/03 01:07:17;;;;;;;6.10;5.38;;;;;;;16.54;100.00;63702.53;5104067;28;20447;-76
2022/09/03 01:09:53;;;;;;;6.15;5.57;;;;;;;16.42;100.00;63697.75;5086197;28;20550;-77
2022/09/03 01:12:33;;;;;;;7.35;5.38;;;;;;;16.46;100.00;63699.38;5086024;28;20243;-77
2022/09/03 01:15:09;;;;;;;6.55;5.07;;;;;;;16.46;100.00;63699.38;5086398;28;20533;-76
2022/09/03 01:17:44;;;;;;;5.40;4.90;;;;;;;16.47;100.00;63700.41;5087237;28;20216;-74
2022/09/03 01:20:21;;;;;;;5.38;4.97;;;;;;;16.43;100.00;63693.63;5086541;28;20206;-78
2022/09/03 01:23:19;;;;;;;8.18;5.60;;;;;;;16.27;100.00;63679.06;5086130;28;20408;-77
2022/09/03 01:25:56;;;;;;;6.93;5.78;;;;;;;16.28;100.00;63678.03;5085893;28;20204;-76
2022/09/03 01:28:37;;;;;;;6.28;5.40;;;;;;;16.30;100.00;63684.75;5085806;28;20184;-75
2022/09/03 01:31:15;;;;;;;6.57;6.00;;;;;;;16.25;100.00;63682.09;5087379;28;20250;-76
2022/09/03 01:33:50;;;;;;;5.97;5.38;;;;;;;16.23;100.00;63677.97;5086888;28;20192;-76
2022/09/03 01:36:25;;;;;;;5.35;4.85;;;;;;;16.25;100.00;63676.97;5085906;28;20218;-75
2022/09/03 01:38:55;;;;;;;6.10;5.50;;;;;;;16.27;100.00;63681.63;5086114;28;20210;-76
2022/09/03 01:44:31;;;;;;;5.80;5.28;;;;;;;16.24;100.00;63673.38;5086606;28;20222;-76
2022/09/03 01:47:10;;;;;;;7.90;5.55;;;;;;;16.25;100.00;63682.63;5105430;28;20549;-77
2022/09/03 01:49:41;;;;;;;5.85;5.35;;;;;;;16.13;100.00;63665.53;5105980;28;20516;-77
2022/09/03 01:52:13;;;;;;;5.82;4.65;;;;;;;16.13;100.00;63665.53;5105588;28;20219;-77
2022/09/03 01:54:57;;;;;;;5.95;5.45;;;;;;;16.20;100.00;63670.22;5091002;28;20216;-76
2022/09/03 01:57:46;;;;;;;5.25;4.85;;;;;;;16.23;100.00;63677.47;5086258;28;20216;-76
2022/09/03 02:00:19;;;;;;;5.18;4.68;;;;;;;16.09;100.00;63661.38;5085496;28;20547;-77
2022/09/03 02:02:49;;;;;;;5.60;5.10;;;;;;;15.99;100.00;63650.97;5086668;28;20266;-77
2022/09/03 02:05:19;;;;;;;5.60;5.10;;;;;;;16.08;100.00;63662.91;5100758;28;20484;-76
2022/09/03 02:07:49;;;;;;;6.63;5.30;;;;;;;16.14;100.00;63666.56;5095318;28;20228;-77
2022/09/03 02:10:18;;;;;;;5.38;4.97;;;;;;;15.98;100.00;63649.94;5085333;28;20290;-76
2022/09/03 02:12:49;;;;;;;5.18;4.70;;;;;;;16.12;100.00;63666.53;5084746;28;20545;-76
2022/09/03 02:15:20;;;;;;;5.93;5.05;;;;;;;16.16;100.00;63668.13;5085052;28;20407;-76
2022/09/03 02:17:48;;;;;;;6.60;4.88;;;;;;;16.14;100.00;63666.56;5086593;28;20216;-76
2022/09/03 02:20:19;;;;;;;5.22;4.72;;;;;;;16.06;100.00;63655.16;5084675;28;20199;-76
2022/09/03 02:22:47;;;;;;;5.10;4.60;;;;;;;16.13;100.00;63668.09;5085122;28;20215;-76
2022/09/03 02:25:15;;;;;;;5.28;4.82;;;;;;;16.09;100.00;63663.41;5085797;28;20195;-77
2022/09/03 02:27:42;;;;;;;5.80;5.30;;;;;;;16.11;100.00;63663.47;5084501;28;20528;-77
2022/09/03 02:30:11;;;;;;;6.38;4.75;;;;;;;16.06;100.00;63662.88;5085317;28;20235;-76
2022/09/03 02:32:39;;;;;;;5.82;5.18;;;;;;;16.12;100.00;63663.97;5097393;28;20242;-76
2022/09/03 02:35:07;;;;;;;5.82;5.30;;;;;;;16.18;100.00;63675.88;5104950;28;20199;-76
2022/09/03 02:37:34;;;;;;;5.43;4.93;;;;;;;16.24;100.00;63681.59;5105382;28;20282;-76
2022/09/03 02:40:05;;;;;;;5.47;4.97;;;;;;;16.20;100.00;63680.50;5105321;28;20195;-76
2022/09/03 02:42:32;;;;;;;5.88;5.00;;;;;;;16.22;100.00;63674.38;5096982;28;20238;-77
2022/09/03 02:45:08;;;;;;;5.30;4.40;;;;;;;16.24;100.00;63679.00;5085168;28;20227;-77
2022/09/03 02:47:37;;;;;;;5.50;5.00;;;;;;;16.24;100.00;63679.00;5084214;28;20306;-76
2022/09/03 02:50:07;;;;;;;4.93;4.55;;;;;;;16.14;100.00;63666.03;5084517;28;20560;-76
2022/09/03 02:52:33;;;;;;;5.80;5.30;;;;;;;16.17;100.00;63669.69;5102540;28;20211;-77
2022/09/03 02:55:00;;;;;;;5.75;5.20;;;;;;;16.05;100.00;63654.13;5104988;28;20199;-77
2022/09/03 02:57:27;;;;;;;4.97;4.53;;;;;;;16.10;100.00;63661.91;5084493;28;20303;-78
2022/09/03 02:59:54;;;;;;;5.57;5.13;;;;;;;16.14;100.00;63666.03;5084569;28;20196;-76
2022/09/03 03:02:21;;;;;;;6.18;5.68;;;;;;;16.08;100.00;63660.31;5096199;28;20238;-76
2022/09/03 03:04:49;;;;;;;5.10;4.70;;;;;;;16.10;100.00;63659.34;5105635;28;20199;-77
2022/09/03 03:07:17;;;;;;;5.55;5.00;;;;;;;16.09;100.00;63661.38;5097993;28;20216;-76
2022/09/03 03:09:44;;;;;;;6.22;5.63;;;;;;;16.06;100.00;63658.25;5085268;28;20575;-77
2022/09/03 03:12:11;;;;;;;5.85;5.25;;;;;;;16.10;100.00;63659.34;5090801;28;20222;-76
2022/09/03 03:14:38;;;;;;;5.68;5.28;;;;;;;16.08;100.00;63664.97;5084819;28;20199;-76
2022/09/03 03:17:05;;;;;;;7.22;5.50;;;;;;;16.12;100.00;63669.63;5083699;28;20325;-75
2022/09/03 03:19:32;;;;;;;6.25;5.65;;;;;;;16.14;100.00;63668.63;5084509;28;20276;-77
2022/09/03 03:21:59;;;;;;;8.20;5.95;;;;;;;16.13;100.00;63665.00;5100369;28;20262;-76
2022/09/03 03:24:27;;;;;;;6.40;5.80;;;;;;;16.14;100.00;63666.03;5103907;28;20196;-76
2022/09/03 03:26:58;;;;;;;7.55;6.03;;;;;;;16.19;100.00;63671.78;5095223;28;20222;-77
2022/09/03 03:29:25;;;;;;;6.15;5.60;;;;;;;16.28;100.00;63682.66;5091528;28;20239;-76
2022/09/03 03:31:53;;;;;;;6.43;5.82;;;;;;;16.22;100.00;63674.38;5104309;28;20218;-76
2022/09/03 03:34:19;;;;;;;8.95;6.40;;;;;;;16.19;100.00;63669.19;5105769;28;20199;-76
2022/09/03 03:36:46;;;;;;;6.20;5.68;;;;;;;16.17;100.00;63666.59;5103949;28;20519;-76
2022/09/03 03:39:13;;;;;;;10.20;6.68;;;;;;;15.88;100.00;63636.44;5101986;28;20199;-76
2022/09/03 03:41:41;;;;;;;8.70;6.65;;;;;;;15.98;100.00;63649.41;5085780;28;20216;-76
2022/09/03 03:44:08;;;;;;;8.35;7.13;;;;;;;15.81;100.00;63629.16;5099771;28;20199;-76
2022/09/03 03:46:37;;;;;;;9.95;7.78;;;;;;;15.86;100.00;63639.50;5104303;28;20227;-76
2022/09/03 03:49:05;;;;;;;8.40;7.30;;;;;;;15.89;100.00;63642.63;5094524;28;20265;-76
2022/09/03 03:51:32;;;;;;;8.75;6.57;;;;;;;15.96;100.00;63642.19;5083980;28;20220;-76
2022/09/03 03:53:59;;;;;;;11.27;7.22;;;;;;;15.90;100.00;63638.53;5083228;28;20199;-76
2022/09/03 03:56:27;;;;;;;8.50;7.05;;;;;;;16.04;100.00;63653.59;5086219;28;20275;-77
2022/09/03 03:58:56;;;;;;;11.63;7.72;;;;;;;16.07;100.00;63664.44;5082919;28;20199;-76
2022/09/03 04:01:25;;;;;;;10.20;6.65;;;;;;;16.15;100.00;63667.59;5083089;28;20212;-77
2022/09/03 04:03:55;;;;;;;8.60;7.80;;;;;;;16.22;100.00;63673.84;5083274;28;20234;-76
2022/09/03 04:06:21;;;;;;;7.93;6.72;;;;;;;16.04;100.00;63658.75;5084242;28;20279;-75
2022/09/03 04:08:49;;;;;;;10.70;7.03;;;;;;;15.66;100.00;63619.22;5101549;28;20199;-77
2022/09/03 04:11:18;;;;;;;11.23;6.72;;;;;;;15.73;100.00;63623.94;5105100;28;20280;-77
2022/09/03 04:13:46;;;;;;;9.02;7.07;;;;;;;15.84;100.00;63635.38;5103362;28;20214;-76
2022/09/03 04:16:17;;;;;;;8.73;7.10;;;;;;;15.76;100.00;63623.97;5099510;28;20415;-77
2022/09/03 04:18:44;;;;;;;9.82;7.40;;;;;;;15.61;100.00;63611.47;5089360;28;20268;-76
2022/09/03 04:21:14;;;;;;;8.43;7.47;;;;;;;15.72;100.00;63625.47;5083680;28;20234;-77
2022/09/03 04:23:43;;;;;;;7.85;7.05;;;;;;;15.90;100.00;63641.09;5084657;28;20203;-76
2022/09/03 04:26:12;;;;;;;7.82;6.80;;;;;;;15.96;100.00;63644.78;5088291;28;20318;-76
2022/09/03 04:28:40;;;;;;;7.60;6.60;;;;;;;15.90;100.00;63641.63;5106249;28;20567;-77
2022/09/03 04:31:08;;;;;;;10.02;6.85;;;;;;;16.13;100.00;63665.53;5108979;28;20227;-76
2022/09/03 04:33:38;;;;;;;14.30;6.80;;;;;;;16.28;100.00;63688.31;5108165;28;20196;-76
2022/09/03 04:36:07;;;;;;;8.23;6.30;;;;;;;16.38;100.00;63688.44;5109040;28;20219;-76
2022/09/03 04:38:35;;;;;;;7.65;6.43;;;;;;;16.46;100.00;63701.38;5111655;28;20300;-76
2022/09/03 04:41:02;;;;;;;9.48;5.57;;;;;;;16.55;100.00;63708.72;5109141;28;20270;-77
2022/09/03 04:43:29;;;;;;;8.82;6.20;;;;;;;16.54;100.00;63705.09;5108861;28;20261;-77
2022/09/03 04:45:58;;;;;;;6.88;6.22;;;;;;;16.60;100.00;63710.84;5100149;28;20228;-76
2022/09/03 04:48:25;;;;;;;9.77;6.80;;;;;;;16.69;100.00;63717.63;5087772;28;20418;-77
2022/09/03 04:50:54;;;;;;;7.70;6.25;;;;;;;16.22;100.00;63673.84;5087998;28;20524;-75
2022/09/03 04:53:22;;;;;;;6.88;5.90;;;;;;;16.09;100.00;63658.81;5089455;28;20196;-76
2022/09/03 04:55:49;;;;;;;7.38;6.68;;;;;;;16.17;100.00;63667.13;5091291;28;20256;-77
2022/09/03 04:58:16;;;;;;;7.78;6.32;;;;;;;16.35;100.00;63685.31;5106746;28;20218;-76
2022/09/03 05:00:43;;;;;;;6.55;5.95;;;;;;;16.35;100.00;63685.31;5106973;28;20195;-77
2022/09/03 05:03:11;;;;;;;7.15;5.88;;;;;;;16.47;100.00;63700.41;5107007;28;20192;-76
2022/09/03 05:05:38;;;;;;;7.30;6.57;;;;;;;16.50;100.00;63700.94;5096346;28;20196;-76
2022/09/03 05:08:06;;;;;;;7.90;6.03;;;;;;;16.56;100.00;63709.25;5099943;28;20191;-76
2022/09/03 05:10:33;;;;;;;6.25;5.68;;;;;;;16.59;100.00;63712.88;5108598;28;20227;-77
2022/09/03 05:13:01;;;;;;;6.32;5.50;;;;;;;16.72;100.00;63728.47;5107671;28;20291;-77
2022/09/03 05:15:30;;;;;;;6.22;5.68;;;;;;;16.60;100.00;63713.91;5105997;28;20507;-77
2022/09/03 05:17:58;;;;;;;6.93;5.40;;;;;;;16.57;100.00;63710.28;5108486;28;20191;-77
2022/09/03 05:20:25;;;;;;;6.57;5.50;;;;;;;16.43;100.00;63698.78;5108052;28;20203;-77
2022/09/03 05:22:52;;;;;;;6.13;5.53;;;;;;;16.32;100.00;63682.22;5106143;28;20219;-75
2022/09/03 05:25:20;;;;;;;5.53;4.50;;;;;;;16.47;100.00;63699.88;5091486;28;20196;-77
2022/09/03 05:27:48;;;;;;;7.18;5.93;;;;;;;16.33;100.00;63685.81;5086605;28;20222;-77
2022/09/03 05:30:16;;;;;;;5.80;5.28;;;;;;;16.20;100.00;63677.44;5086554;28;20234;-77
2022/09/03 05:32:43;;;;;;;5.60;5.10;;;;;;;16.20;100.00;63675.38;5087224;28;20424;-76
2022/09/03 05:35:10;;;;;;;6.53;5.65;;;;;;;16.20;100.00;63677.94;5085860;28;20280;-77
2022/09/03 05:37:37;;;;;;;6.38;5.78;;;;;;;16.43;100.00;63693.63;5101432;28;20227;-76
2022/09/03 05:40:05;;;;;;;5.28;4.78;;;;;;;16.50;100.00;63700.94;5108464;28;20245;-78
2022/09/03 05:42:37;;;;;;;5.85;5.45;;;;;;;16.43;100.00;63698.78;5105577;28;20230;-75
2022/09/03 05:45:09;;;;;;;5.32;4.93;;;;;;;16.03;100.00;63657.69;5086361;28;20311;-76
2022/09/03 05:47:38;;;;;;;5.80;5.20;;;;;;;15.72;100.00;63622.38;5085120;28;20247;-78
2022/09/03 05:50:07;;;;;;;4.43;4.13;;;;;;;15.87;100.00;63640.53;5085522;28;20246;-77
2022/09/03 05:52:35;;;;;;;4.68;4.28;;;;;;;16.16;100.00;63665.56;5085542;28;20669;-77
2022/09/03 05:55:02;;;;;;;5.00;4.60;;;;;;;16.15;100.00;63669.66;5104445;28;20196;-75
2022/09/03 05:57:29;;;;;;;6.00;4.82;;;;;;;16.22;100.00;63676.44;5107137;28;20238;-77
2022/09/03 05:59:59;;;;;;;5.10;4.70;;;;;;;16.45;100.00;63700.88;5107234;28;20370;-76
2022/09/03 06:02:25;;;;;;;4.65;4.25;;;;;;;16.54;100.00;63704.59;5098766;28;20266;-75
2022/09/03 06:04:52;;;;;;;4.18;3.88;;;;;;;16.53;100.00;63706.63;5085031;28;20192;-77
2022/09/03 06:07:19;;;;;;;4.75;4.30;;;;;;;16.77;100.00;63729.06;5088895;28;20223;-75
2022/09/03 06:09:49;;;;;;;5.38;4.20;;;;;;;16.43;100.00;63698.28;5089741;28;20246;-76
2022/09/03 06:12:16;;;;;;;4.50;4.10;;;;;;;16.67;100.00;63720.69;5091111;28;20254;-77
2022/09/03 06:14:43;;;;;;;4.80;4.28;;;;;;;16.65;100.00;63723.75;5107457;28;20200;-78
2022/09/03 06:17:13;;;;;;;4.80;4.35;;;;;;;16.94;100.00;63746.75;5105808;28;20223;-78
2022/09/03 06:19:40;;;;;;;5.20;4.50;;;;;;;16.54;100.00;63707.16;5105750;28;20192;-79
2022/09/03 06:22:07;;;;;;;4.45;4.15;;;;;;;16.75;100.00;63729.00;5092887;28;20238;-77
2022/09/03 06:24:34;;;;;;;4.65;4.25;;;;;;;16.96;100.00;63750.88;5085392;28;20426;-76
2022/09/03 06:27:01;;;;;;;4.18;3.95;;;;;;;16.58;100.00;63713.91;5086314;28;20539;-77
2022/09/03 06:29:28;;;;;;;5.00;4.57;;;;;;;16.41;100.00;63693.63;5088046;28;20397;-76
2022/09/03 06:31:55;;;;;;;5.03;4.20;;;;;;;16.25;100.00;63680.06;5084374;28;20619;-77
2022/09/03 06:34:25;;;;;;;4.55;4.15;;;;;;;16.35;100.00;63687.91;5085347;28;20203;-77
2022/09/03 06:36:52;;;;;;;5.03;4.70;;;;;;;16.69;100.00;63725.84;5085294;28;20216;-77
2022/09/03 06:39:19;;;;;;;4.43;4.13;;;;;;;16.66;100.00;63717.06;5085494;28;20269;-76
2022/09/03 06:41:50;;;;;;;4.97;4.57;;;;;;;16.77;100.00;63731.09;5105228;28;20215;-75
2022/09/03 06:44:17;;;;;;;4.93;4.53;;;;;;;16.18;100.00;63670.22;5105274;28;20504;-76
2022/09/03 06:46:46;;;;;;;4.40;3.88;;;;;;;16.51;100.00;63709.19;5108035;28;20287;-76
2022/09/03 06:49:13;;;;;;;4.45;4.15;;;;;;;16.29;100.00;63681.66;5105344;28;20382;-75
2022/09/03 06:51:43;;;;;;;4.35;4.05;;;;;;;16.55;100.00;63710.78;5091000;28;20289;-76
2022/09/03 06:54:11;;;;;;;4.53;4.18;;;;;;;16.69;100.00;63722.75;5085704;28;20207;-76
2022/09/03 06:56:40;;;;;;;4.80;4.40;;;;;;;16.81;100.00;63737.81;5085370;28;20224;-75
2022/09/03 06:59:08;;;;;;;5.20;4.32;;;;;;;17.17;100.00;63775.81;5086539;28;20421;-77
2022/09/03 07:01:36;;;;;;;4.90;4.50;;;;;;;17.18;100.00;63771.19;5105236;28;20253;-76
2022/09/03 07:04:05;;;;;;;4.50;4.18;;;;;;;17.24;100.00;63777.44;5106804;28;20422;-77
2022/09/03 07:06:35;;;;;;;5.60;5.13;;;;;;;17.33;100.00;63784.75;5104607;28;20215;-77
2022/09/03 07:09:04;;;;;;;4.72;4.43;;;;;;;17.59;100.00;63815.94;5086124;28;20211;-76
2022/09/03 07:11:32;;;;;;;4.32;3.92;;;;;;;16.95;100.00;63747.25;5084703;28;20250;-74
2022/09/03 07:14:00;;;;;;;5.30;4.90;;;;;;;17.00;100.00;63750.41;5084212;28;20188;-76
2022/09/03 07:16:29;;;;;;;4.97;4.65;;;;;;;17.27;100.00;63780.56;5083903;28;20539;-76
2022/09/03 07:18:57;;;;;;;5.38;4.85;;;;;;;17.43;100.00;63797.22;5094676;28;20199;-75
2022/09/03 07:21:26;;;;;;;4.20;3.97;;;;;;;17.58;100.00;63818.00;5105514;28;20215;-77
2022/09/03 07:23:54;;;;;;;4.78;4.38;;;;;;;17.50;100.00;63807.09;5104391;28;20229;-77
2022/09/03 07:26:24;;;;;;;5.03;4.63;;;;;;;17.59;100.00;63816.47;5104781;28;20328;-76
2022/09/03 07:28:52;;;;;;;5.13;4.70;;;;;;;17.45;100.00;63803.94;5106985;28;20201;-76
2022/09/03 07:31:21;;;;;;;5.43;4.93;;;;;;;17.49;100.00;63806.06;5104362;28;20245;-78
2022/09/03 07:33:48;;;;;;;7.05;5.50;;;;;;;17.59;100.00;63815.94;5094175;28;20272;-76
2022/09/03 07:36:16;;;;;;;5.85;5.35;;;;;;;17.49;100.00;63808.63;5085749;28;20219;-75
2022/09/03 07:38:44;;;;;;;5.03;4.65;;;;;;;17.71;100.00;63828.44;5084487;28;20267;-76
2022/09/03 07:41:13;;;;;;;5.00;4.60;;;;;;;17.96;100.00;63852.44;5084161;28;20215;-77
2022/09/03 07:43:45;;;;;;;5.57;5.07;;;;;;;18.25;100.00;63885.22;5084069;28;20465;-76
2022/09/03 07:46:13;;;;;;;5.78;4.95;;;;;;;17.95;100.00;63856.00;5084036;28;20245;-76
2022/09/03 07:48:40;;;;;;;5.70;5.25;;;;;;;18.16;100.00;63875.84;5084423;28;20191;-76
2022/09/03 07:51:08;;;;;;;5.05;4.70;;;;;;;18.01;100.00;63864.84;5091325;28;20233;-77
2022/09/03 07:53:35;;;;;;;6.50;5.47;;;;;;;18.49;100.00;63909.72;5104998;28;20233;-76
2022/09/03 07:56:04;;;;;;;5.82;5.05;;;;;;;18.99;100.00;63961.31;5103913;28;20260;-77
2022/09/03 07:58:31;;;;;;;4.80;4.40;;;;;;;18.82;100.00;63941.00;5104487;28;20206;-77
2022/09/03 08:01:07;;;;;;;3.70;3.50;;;;;;;19.00;100.00;63962.88;5103899;28;20223;-76
2022/09/03 08:03:34;;;;;;;5.85;3.58;;;;;;;19.28;100.00;63988.97;5108335;28;20190;-78
2022/09/03 08:06:03;;;;;;;4.25;3.95;;;;;;;19.69;99.11;64033.81;5108497;28;20215;-75
2022/09/03 08:08:30;;;;;;;4.07;3.88;;;;;;;19.62;98.62;64027.03;5092390;28;20410;-77
2022/09/03 08:11:04;;;;;;;4.68;4.18;;;;;;;18.85;100.00;63944.66;5089297;28;20236;-76
2022/09/03 08:13:32;;;;;;;5.07;4.63;;;;;;;18.93;100.00;63955.06;5088636;28;20195;-78
2022/09/03 08:16:01;;;;;;;5.05;4.65;;;;;;;18.94;100.00;63956.63;5088488;28;20235;-77
2022/09/03 08:18:37;;;;;;;5.65;4.78;;;;;;;18.75;100.00;63939.41;5087557;28;20226;-77
2022/09/03 08:21:07;;;;;;;4.50;4.20;;;;;;;18.28;100.00;63885.22;5087747;28;20597;-77
2022/09/03 08:23:37;;;;;;;5.50;5.10;;;;;;;18.64;100.00;63922.25;5087832;28;20228;-77
2022/09/03 08:26:04;;;;;;;4.82;4.43;;;;;;;18.54;100.00;63916.97;5089272;28;20269;-76
2022/09/03 08:28:31;;;;;;;4.70;4.40;;;;;;;18.31;100.00;63888.34;5089528;28;20238;-78
2022/09/03 08:31:04;;;;;;;4.50;4.20;;;;;;;17.98;100.00;63859.16;5107226;28;20295;-75
2022/09/03 08:33:37;;;;;;;4.30;4.00;;;;;;;17.99;100.00;63863.28;5108042;28;20476;-76
2022/09/03 08:36:05;;;;;;;5.57;5.03;;;;;;;18.33;100.00;63898.69;5107720;28;20211;-77
2022/09/03 08:38:33;;;;;;;5.13;4.55;;;;;;;18.70;100.00;63934.19;5107534;28;20195;-78
2022/09/03 08:41:10;;;;;;;3.78;3.47;;;;;;;19.00;100.00;63962.88;5106394;28;20215;-77
2022/09/03 08:43:54;;;;;;;4.85;4.35;;;;;;;19.27;100.00;63991.03;5110671;28;20232;-76
2022/09/03 08:46:25;;;;;;;5.18;4.78;;;;;;;19.84;99.08;64047.38;5107696;28;20286;-78
2022/09/03 08:48:54;;;;;;;4.20;4.00;;;;;;;20.01;96.41;64072.34;5093949;28;20280;-77
2022/09/03 08:51:26;;;;;;;5.03;4.63;;;;;;;19.79;96.06;64044.22;5086962;28;20231;-75
2022/09/03 08:53:56;;;;;;;4.15;3.90;;;;;;;19.86;97.11;64051.53;5087663;28;20206;-78
2022/09/03 08:56:26;;;;;;;5.25;4.63;;;;;;;20.15;96.27;64081.78;5087584;28;20242;-77
2022/09/03 08:58:54;;;;;;;5.00;4.60;;;;;;;19.64;100.00;64026.00;5088161;28;20192;-77
2022/09/03 09:01:34;;;;;;;4.95;4.55;;;;;;;20.18;97.19;64082.34;5087843;28;20369;-77
2022/09/03 09:04:11;;;;;;;4.90;4.60;;;;;;;20.58;93.37;64126.69;5087794;28;20477;-78
2022/09/03 09:06:46;;;;;;;4.18;3.97;;;;;;;20.15;94.43;64082.31;5087353;28;20235;-77
2022/09/03 09:09:28;;;;;;;4.90;4.50;;;;;;;20.30;93.11;64100.03;5086460;28;20532;-77
2022/09/03 09:12:07;;;;;;;4.80;4.50;;;;;;;19.77;96.74;64044.72;5086551;28;20254;-78
2022/09/03 09:14:40;;;;;;;4.55;4.13;;;;;;;20.10;94.58;64079.69;5087598;28;20218;-79
2022/09/03 09:17:26;;;;;;;5.05;4.65;;;;;;;19.87;96.66;64053.09;5106215;28;20226;-78
2022/09/03 09:20:04;;;;;;;4.88;4.57;;;;;;;20.27;93.70;64091.75;5108744;28;20197;-78
2022/09/03 09:22:37;;;;;;;4.07;3.85;;;;;;;20.24;92.21;64091.22;5106876;28;20283;-76
2022/09/03 09:25:11;;;;;;;5.10;4.80;;;;;;;20.33;93.91;64098.53;5107830;28;20195;-77
2022/09/03 09:27:50;;;;;;;5.53;5.13;;;;;;;20.42;93.63;64110.50;5089425;28;20471;-77
2022/09/03 09:30:18;;;;;;;5.35;4.95;;;;;;;20.51;91.79;64119.91;5108754;28;20414;-77
2022/09/03 09:32:46;;;;;;;5.60;5.20;;;;;;;20.75;91.87;64141.31;5108509;28;20235;-79
2022/09/03 09:35:15;;;;;;;5.85;5.35;;;;;;;20.92;89.82;64162.19;5107921;28;20203;-78
2022/09/03 09:37:50;;;;;;;5.65;5.20;;;;;;;20.58;91.08;64129.28;5105433;28;20211;-77
2022/09/03 09:40:32;;;;;;;5.70;5.20;;;;;;;20.84;90.58;64150.72;5107709;28;20198;-78
2022/09/03 09:43:07;;;;;;;5.40;5.00;;;;;;;21.17;87.20;64188.31;5106957;28;20258;-77
2022/09/03 09:45:34;;;;;;;5.32;4.97;;;;;;;21.15;87.48;64183.09;5094277;28;20200;-77
2022/09/03 09:48:09;;;;;;;5.53;5.03;;;;;;;20.46;91.53;64116.75;5092223;28;20192;-76
2022/09/03 09:50:36;;;;;;;5.60;5.20;;;;;;;19.80;95.12;64045.28;5106463;28;20199;-75
2022/09/03 09:53:13;;;;;;;5.55;5.13;;;;;;;20.11;95.92;64075.56;5106408;28;20237;-78
2022/09/03 09:55:49;;;;;;;5.63;5.22;;;;;;;20.15;94.38;64081.78;5107205;28;20258;-76
2022/09/03 09:58:21;;;;;;;5.78;5.38;;;;;;;20.58;93.02;64126.69;5106432;28;20187;-77
2022/09/03 10:01:12;;;;;;;4.90;4.60;;;;;;;20.28;92.15;64098.47;5105857;28;20519;-77
2022/09/03 10:03:49;;;;;;;5.88;5.40;;;;;;;19.99;95.17;64065.63;5106530;28;20191;-76
2022/09/03 10:09:11;;;;;;;5.97;5.57;;;;;;;19.74;99.06;64041.59;5086125;28;20405;-77
2022/09/03 10:11:41;;;;;;;6.38;5.88;;;;;;;20.15;95.78;64079.22;5085395;28;20231;-76
2022/09/03 10:14:19;;;;;;;6.97;5.50;;;;;;;20.51;93.31;64117.31;5087184;28;20212;-77
2022/09/03 10:16:50;;;;;;;5.47;5.00;;;;;;;19.82;96.54;64049.94;5085615;28;20249;-76
2022/09/03 10:19:24;;;;;;;4.95;4.53;;;;;;;20.28;96.07;64095.38;5087647;28;20223;-77
2022/09/03 10:22:01;;;;;;;11.07;5.28;;;;;;;20.59;95.07;64127.72;5093623;28;20215;-77
2022/09/03 10:24:39;;;;;;;5.40;5.10;;;;;;;21.14;90.28;64184.66;5090875;28;20207;-76
2022/09/03 10:27:11;;;;;;;5.35;4.82;;;;;;;21.25;90.00;64198.72;5091567;28;20215;-78
2022/09/03 10:29:41;;;;;;;5.25;4.80;;;;;;;21.37;87.10;64208.66;5090381;28;20466;-76
2022/09/03 10:32:22;;;;;;;5.20;4.80;;;;;;;20.85;90.22;64160.03;5088067;28;20250;-77
2022/09/03 10:35:00;;;;;;;6.82;5.43;;;;;;;21.27;88.95;64198.75;5091918;28;20196;-77
2022/09/03 10:37:39;;;;;;;6.00;5.50;;;;;;;21.71;86.78;64246.78;5091462;28;20257;-76
2022/09/03 10:40:19;;;;;;;4.88;4.57;;;;;;;20.82;89.77;64151.22;5090906;28;20196;-75
2022/09/03 10:42:57;;;;;;;6.13;5.65;;;;;;;20.59;94.10;64122.56;5090058;28;20222;-77
2022/09/03 10:45:38;;;;;;;5.07;4.75;;;;;;;21.17;89.66;64188.31;5090934;28;20422;-76
2022/09/03 10:48:31;;;;;;;5.07;4.70;;;;;;;21.16;88.06;64192.44;5106126;28;20370;-78
2022/09/03 10:51:05;;;;;;;5.75;5.35;;;;;;;21.11;90.85;64184.63;5110504;28;20466;-77
2022/09/03 10:53:48;;;;;;;5.90;5.47;;;;;;;21.46;87.97;64216.00;5104146;28;20259;-77
2022/09/03 10:56:22;;;;;;;5.30;4.90;;;;;;;21.57;87.95;64237.34;5088342;28;20215;-77
2022/09/03 10:59:01;;;;;;;6.13;5.63;;;;;;;21.60;85.63;64233.22;5087878;28;20192;-75
2022/09/03 11:01:37;;;;;;;4.82;4.53;;;;;;;21.40;87.58;64214.91;5089775;28;20230;-76
2022/09/03 11:04:24;;;;;;;5.80;5.40;;;;;;;21.19;88.19;64195.06;5096220;28;20195;-75
2022/09/03 11:07:00;;;;;;;6.10;5.60;;;;;;;21.02;89.63;64169.53;5107400;28;20215;-76
2022/09/03 11:09:36;;;;;;;5.05;4.75;;;;;;;21.44;86.92;64218.56;5090655;28;20183;-77
2022/09/03 11:12:08;;;;;;;5.20;4.85;;;;;;;21.59;87.09;64234.75;5090231;28;20231;-77
2022/09/03 11:14:40;;;;;;;4.90;4.50;;;;;;;21.26;85.73;64199.78;5088505;28;20210;-77
2022/09/03 11:17:16;;;;;;;4.90;4.55;;;;;;;21.43;85.42;64214.94;5089157;28;20212;-76
2022/09/03 11:19:50;;;;;;;4.85;4.45;;;;;;;21.57;85.67;64232.66;5090309;28;20202;-76
2022/09/03 11:22:22;;;;;;;4.75;4.45;;;;;;;21.68;83.20;64241.06;5089379;28;20216;-77
2022/09/03 11:24:54;;;;;;;4.50;4.20;;;;;;;21.50;84.08;64222.75;5094021;28;20271;-75
2022/09/03 11:27:36;;;;;;;4.53;4.22;;;;;;;21.46;84.57;64218.06;5109939;28;20237;-77
2022/09/03 11:30:07;;;;;;;5.05;4.65;;;;;;;21.21;85.45;64191.97;5107830;28;20195;-78
2022/09/03 11:32:48;;;;;;;4.28;4.00;;;;;;;21.10;86.64;64183.06;5092568;28;20231;-77
2022/09/03 11:35:17;;;;;;;4.80;4.40;;;;;;;21.07;87.88;64177.34;5084337;28;20227;-77
2022/09/03 11:37:54;;;;;;;5.35;5.05;;;;;;;21.04;89.39;64174.72;5084320;28;20525;-77
2022/09/03 11:40:32;;;;;;;5.00;4.68;;;;;;;21.27;88.73;64200.81;5085270;28;20499;-76
2022/09/03 11:43:06;;;;;;;10.07;4.47;;;;;;;21.56;86.24;64231.09;5096767;28;20405;-77
2022/09/03 11:45:38;;;;;;;4.28;4.00;;;;;;;21.74;85.73;64253.03;5104876;28;20221;-77
2022/09/03 11:48:34;;;;;;;4.68;4.38;;;;;;;21.76;85.92;64249.41;5105850;28;20184;-77
2022/09/03 11:51:01;;;;;;;3.85;3.65;;;;;;;21.92;80.62;64266.16;5097269;28;20265;-75